sensor_id;sensor_type;location;lat;lon;timestamp;pressure;altitude;pressure_sealevel;temperature;humidity
30554;BME280;17335;50.720;7.452;2024-03-02T00:00:24;97935.88;;;5.13;100.00
30554;BME280;17335;50.720;7.452;2024-03-02T00:02:53;97933.75;;;5.07;100.00
30554;BME280;17335;50.720;7.452;2024-03-02T00:05:22;97935.88;;;5.13;100.00
30554;BME280;17335;50.720;7.452;2024-03-02T00:07:59;97936.94;;;5.20;100.00
30554;BME280;17335;50.720;7.452;2024-03-02T00:10:39;97938.91;;;5.28;100.00
30554;BME280;17335;50.720;7.452;2024-03-02T00:13:07;97942.09;;;5.32;100.00
30554;BME280;17335;50.720;7.452;2024-03-02T00:15:46;97944.63;;;5.33;100.00
30554;BME280;17335;50.720;7.452;2024-03-02T00:18:31;97937.28;;;5.45;100.00
30554;BME280;17335;50.720;7.452;2024-03-02T00:20:58;97937.56;;;5.42;100.00
30554;BME280;17335;50.720;7.452;2024-03-02T00:23:30;97940.34;;;5.50;100.00
30554;BME280;17335;50.720;7.452;2024-03-02T00:25:58;97942.25;;;5.58;100.00
30554;BME280;17335;50.720;7.452;2024-03-02T00:28:30;97941.38;;;5.67;100.00
30554;BME280;17335;50.720;7.452;2024-03-02T00:31:04;97937.16;;;5.74;100.00
30554;BME280;17335;50.720;7.452;2024-03-02T00:33:45;97930.97;;;5.74;100.00
30554;BME280;17335;50.720;7.452;2024-03-02T00:36:14;97935.72;;;5.80;100.00
30554;BME280;17335;50.720;7.452;2024-03-02T00:38:51;97932.75;;;5.83;100.00
30554;BME280;17335;50.720;7.452;2024-03-02T00:41:24;97929.94;;;5.85;100.00
30554;BME280;17335;50.720;7.452;2024-03-02T00:44:04;97924.44;;;5.86;100.00
30554;BME280;17335;50.720;7.452;2024-03-02T00:46:40;97921.63;;;5.88;100.00
30554;BME280;17335;50.720;7.452;2024-03-02T00:49:18;97920.56;;;5.80;100.00
30554;BME280;17335;50.720;7.452;2024-03-02T00:51:49;97918.56;;;5.82;100.00
30554;BME280;17335;50.720;7.452;2024-03-02T00:54:19;97916.78;;;5.83;100.00
30554;BME280;17335;50.720;7.452;2024-03-02T00:56:47;97911.97;;;5.87;100.00
30554;BME280;17335;50.720;7.452;2024-03-02T00:59:13;97910.25;;;5.95;100.00
30554;BME280;17335;50.720;7.452;2024-03-02T01:01:40;97907.63;;;5.86;100.00
30554;BME280;17335;50.720;7.452;2024-03-02T01:04:06;97906.50;;;5.88;100.00
30554;BME280;17335;50.720;7.452;2024-03-02T01:06:32;97908.28;;;5.70;100.00
30554;BME280;17335;50.720;7.452;2024-03-02T01:09:00;97902.88;;;5.61;100.00
30554;BME280;17335;50.720;7.452;2024-03-02T01:11:26;97904.72;;;5.61;100.00
30554;BME280;17335;50.720;7.452;2024-03-02T01:13:53;97897.06;;;5.48;100.00
30554;BME280;17335;50.720;7.452;2024-03-02T01:16:20;97903.81;;;5.42;100.00
30554;BME280;17335;50.720;7.452;2024-03-02T01:18:47;97902.31;;;5.40;100.00
30554;BME280;17335;50.720;7.452;2024-03-02T01:21:14;97891.19;;;5.44;100.00
30554;BME280;17335;50.720;7.452;2024-03-02T01:23:41;97889.06;;;5.48;100.00
30554;BME280;17335;50.720;7.452;2024-03-02T01:26:08;97882.38;;;5.44;100.00
30554;BME280;17335;50.720;7.452;2024-03-02T01:28:34;97875.69;;;5.40;100.00
30554;BME280;17335;50.720;7.452;2024-03-02T01:31:00;97892.25;;;5.34;100.00
30554;BME280;17335;50.720;7.452;2024-03-02T01:33:28;97884.69;;;5.29;100.00
30554;BME280;17335;50.720;7.452;2024-03-02T01:35:54;97885.00;;;5.26;100.00
30554;BME280;17335;50.720;7.452;2024-03-02T01:38:21;97885.63;;;5.38;100.00
30554;BME280;17335;50.720;7.452;2024-03-02T01:40:48;97883.03;;;5.28;100.00
30554;BME280;17335;50.720;7.452;2024-03-02T01:43:14;97882.34;;;5.26;100.00
30554;BME280;17335;50.720;7.452;2024-03-02T01:45:41;97869.06;;;5.44;100.00
30554;BME280;17335;50.720;7.452;2024-03-02T01:48:07;97874.91;;;5.30;100.00
30554;BME280;17335;50.720;7.452;2024-03-02T01:50:34;97872.28;;;5.48;100.00
30554;BME280;17335;50.720;7.452;2024-03-02T01:53:02;97869.75;;;5.46;100.00
30554;BME280;17335;50.720;7.452;2024-03-02T01:55:31;97873.50;;;5.53;100.00
30554;BME280;17335;50.720;7.452;2024-03-02T01:57:59;97866.91;;;5.57;100.00
30554;BME280;17335;50.720;7.452;2024-03-02T02:00:26;97863.56;;;5.55;100.00
30554;BME280;17335;50.720;7.452;2024-03-02T02:02:54;97856.66;;;5.62;100.00
30554;BME280;17335;50.720;7.452;2024-03-02T02:05:21;97846.06;;;5.71;100.00
30554;BME280;17335;50.720;7.452;2024-03-02T02:07:48;97843.25;;;5.72;100.00
30554;BME280;17335;50.720;7.452;2024-03-02T02:10:14;97847.50;;;5.65;100.00
30554;BME280;17335;50.720;7.452;2024-03-02T02:12:41;97833.41;;;5.55;100.00
30554;BME280;17335;50.720;7.452;2024-03-02T02:17:50;97838.97;;;5.43;100.00
30554;BME280;17335;50.720;7.452;2024-03-02T02:20:17;97840.47;;;5.46;100.00
30554;BME280;17335;50.720;7.452;2024-03-02T02:23:01;97836.34;;;5.34;100.00
30554;BME280;17335;50.720;7.452;2024-03-02T02:25:29;97843.03;;;5.38;100.00
30554;BME280;17335;50.720;7.452;2024-03-02T02:27:56;97844.63;;;5.31;100.00
30554;BME280;17335;50.720;7.452;2024-03-02T02:30:26;97835.47;;;5.15;100.00
30554;BME280;17335;50.720;7.452;2024-03-02T02:32:53;97835.06;;;5.10;100.00
30554;BME280;17335;50.720;7.452;2024-03-02T02:35:19;97845.41;;;5.13;100.00
30554;BME280;17335;50.720;7.452;2024-03-02T02:37:46;97838.22;;;5.23;100.00
30554;BME280;17335;50.720;7.452;2024-03-02T02:40:14;97838.59;;;5.11;100.00
30554;BME280;17335;50.720;7.452;2024-03-02T02:42:40;97833.81;;;5.14;100.00
30554;BME280;17335;50.720;7.452;2024-03-02T02:45:07;97835.19;;;5.18;100.00
30554;BME280;17335;50.720;7.452;2024-03-02T02:47:34;97836.88;;;5.19;100.00
30554;BME280;17335;50.720;7.452;2024-03-02T02:50:06;97825.91;;;5.22;100.00
30554;BME280;17335;50.720;7.452;2024-03-02T02:52:34;97824.78;;;5.25;100.00
30554;BME280;17335;50.720;7.452;2024-03-02T02:55:03;97821.69;;;5.30;100.00
30554;BME280;17335;50.720;7.452;2024-03-02T02:57:31;97812.16;;;5.27;100.00
30554;BME280;17335;50.720;7.452;2024-03-02T03:00:12;97804.53;;;5.42;100.00
30554;BME280;17335;50.720;7.452;2024-03-02T03:02:48;97805.59;;;5.49;100.00
30554;BME280;17335;50.720;7.452;2024-03-02T03:05:16;97800.56;;;5.46;100.00
30554;BME280;17335;50.720;7.452;2024-03-02T03:07:43;97800.09;;;5.33;100.00
30554;BME280;17335;50.720;7.452;2024-03-02T03:10:14;97807.03;;;5.43;100.00
30554;BME280;17335;50.720;7.452;2024-03-02T03:12:41;97806.81;;;5.37;100.00
30554;BME280;17335;50.720;7.452;2024-03-02T03:15:10;97813.47;;;5.41;100.00
30554;BME280;17335;50.720;7.452;2024-03-02T03:17:36;97801.00;;;5.23;100.00
30554;BME280;17335;50.720;7.452;2024-03-02T03:20:04;97816.41;;;5.20;100.00
30554;BME280;17335;50.720;7.452;2024-03-02T03:22:31;97813.78;;;5.10;100.00
30554;BME280;17335;50.720;7.452;2024-03-02T03:24:58;97813.72;;;5.30;100.00
30554;BME280;17335;50.720;7.452;2024-03-02T03:27:25;97821.19;;;5.16;100.00
30554;BME280;17335;50.720;7.452;2024-03-02T03:29:52;97823.31;;;5.13;100.00
30554;BME280;17335;50.720;7.452;2024-03-02T03:32:19;97827.09;;;5.10;100.00
30554;BME280;17335;50.720;7.452;2024-03-02T03:34:46;97819.78;;;5.12;100.00
30554;BME280;17335;50.720;7.452;2024-03-02T03:37:14;97821.53;;;5.03;100.00
30554;BME280;17335;50.720;7.452;2024-03-02T03:39:41;97824.91;;;5.05;100.00
30554;BME280;17335;50.720;7.452;2024-03-02T03:42:08;97821.91;;;5.08;100.00
30554;BME280;17335;50.720;7.452;2024-03-02T03:44:34;97828.25;;;5.07;100.00
30554;BME280;17335;50.720;7.452;2024-03-02T03:47:01;97833.31;;;5.01;100.00
30554;BME280;17335;50.720;7.452;2024-03-02T03:49:28;97845.53;;;4.94;100.00
30554;BME280;17335;50.720;7.452;2024-03-02T03:51:55;97839.09;;;4.86;100.00
30554;BME280;17335;50.720;7.452;2024-03-02T03:54:21;97834.34;;;4.90;100.00
30554;BME280;17335;50.720;7.452;2024-03-02T03:56:48;97838.13;;;4.87;100.00
30554;BME280;17335;50.720;7.452;2024-03-02T03:59:15;97840.22;;;4.84;100.00
30554;BME280;17335;50.720;7.452;2024-03-02T04:01:41;97840.09;;;4.85;100.00
30554;BME280;17335;50.720;7.452;2024-03-02T04:04:07;97839.00;;;4.78;100.00
30554;BME280;17335;50.720;7.452;2024-03-02T04:06:34;97842.63;;;4.77;100.00
30554;BME280;17335;50.720;7.452;2024-03-02T04:09:00;97842.09;;;4.74;100.00
30554;BME280;17335;50.720;7.452;2024-03-02T04:11:27;97847.25;;;4.75;100.00
30554;BME280;17335;50.720;7.452;2024-03-02T04:13:54;97836.44;;;4.86;100.00
30554;BME280;17335;50.720;7.452;2024-03-02T04:16:24;97843.00;;;4.92;100.00
30554;BME280;17335;50.720;7.452;2024-03-02T04:18:50;97834.88;;;4.94;100.00
30554;BME280;17335;50.720;7.452;2024-03-02T04:21:16;97826.91;;;4.94;100.00
30554;BME280;17335;50.720;7.452;2024-03-02T04:23:43;97831.47;;;5.01;100.00
30554;BME280;17335;50.720;7.452;2024-03-02T04:26:09;97834.75;;;4.95;100.00
30554;BME280;17335;50.720;7.452;2024-03-02T04:28:36;97828.56;;;4.95;100.00
30554;BME280;17335;50.720;7.452;2024-03-02T04:31:02;97837.13;;;4.88;100.00
30554;BME280;17335;50.720;7.452;2024-03-02T04:33:29;97844.25;;;4.88;100.00
30554;BME280;17335;50.720;7.452;2024-03-02T04:35:55;97854.09;;;4.78;100.00
30554;BME280;17335;50.720;7.452;2024-03-02T04:38:22;97852.69;;;4.83;100.00
30554;BME280;17335;50.720;7.452;2024-03-02T04:40:49;97845.97;;;4.79;100.00
30554;BME280;17335;50.720;7.452;2024-03-02T04:43:15;97845.44;;;4.76;100.00
30554;BME280;17335;50.720;7.452;2024-03-02T04:45:42;97845.88;;;4.71;100.00
30554;BME280;17335;50.720;7.452;2024-03-02T04:48:09;97856.66;;;4.69;100.00
30554;BME280;17335;50.720;7.452;2024-03-02T04:50:36;97858.34;;;4.61;100.00
30554;BME280;17335;50.720;7.452;2024-03-02T04:53:02;97853.31;;;4.58;100.00
30554;BME280;17335;50.720;7.452;2024-03-02T04:55:29;97867.84;;;4.54;100.00
30554;BME280;17335;50.720;7.452;2024-03-02T04:57:55;97873.75;;;4.47;100.00
30554;BME280;17335;50.720;7.452;2024-03-02T05:00:22;97877.97;;;4.40;100.00
30554;BME280;17335;50.720;7.452;2024-03-02T05:02:49;97886.91;;;4.39;100.00
30554;BME280;17335;50.720;7.452;2024-03-02T05:05:15;97893.38;;;4.37;100.00
30554;BME280;17335;50.720;7.452;2024-03-02T05:07:42;97895.44;;;4.33;100.00
30554;BME280;17335;50.720;7.452;2024-03-02T05:10:10;97896.56;;;4.40;100.00
30554;BME280;17335;50.720;7.452;2024-03-02T05:12:37;97896.44;;;4.32;100.00
30554;BME280;17335;50.720;7.452;2024-03-02T05:15:22;97900.47;;;4.36;100.00
30554;BME280;17335;50.720;7.452;2024-03-02T05:17:48;97905.09;;;4.34;100.00
30554;BME280;17335;50.720;7.452;2024-03-02T05:20:15;97903.13;;;4.36;100.00
30554;BME280;17335;50.720;7.452;2024-03-02T05:22:42;97900.31;;;4.28;100.00
30554;BME280;17335;50.720;7.452;2024-03-02T05:25:08;97909.56;;;4.34;100.00
30554;BME280;17335;50.720;7.452;2024-03-02T05:27:36;97904.00;;;4.37;100.00
30554;BME280;17335;50.720;7.452;2024-03-02T05:30:03;97902.44;;;4.24;100.00
30554;BME280;17335;50.720;7.452;2024-03-02T05:32:33;97905.63;;;4.28;100.00
30554;BME280;17335;50.720;7.452;2024-03-02T05:34:59;97912.94;;;4.36;100.00
30554;BME280;17335;50.720;7.452;2024-03-02T05:37:26;97907.34;;;4.39;100.00
30554;BME280;17335;50.720;7.452;2024-03-02T05:39:53;97905.38;;;4.50;100.00
30554;BME280;17335;50.720;7.452;2024-03-02T05:42:19;97905.38;;;4.50;100.00
30554;BME280;17335;50.720;7.452;2024-03-02T05:44:46;97893.59;;;4.53;100.00
30554;BME280;17335;50.720;7.452;2024-03-02T05:47:13;97901.31;;;4.46;100.00
30554;BME280;17335;50.720;7.452;2024-03-02T05:49:39;97900.88;;;4.51;100.00
30554;BME280;17335;50.720;7.452;2024-03-02T05:52:06;97898.78;;;4.45;100.00
30554;BME280;17335;50.720;7.452;2024-03-02T05:54:33;97899.22;;;4.40;100.00
30554;BME280;17335;50.720;7.452;2024-03-02T05:56:59;97895.19;;;4.26;100.00
30554;BME280;17335;50.720;7.452;2024-03-02T05:59:44;97905.38;;;4.31;100.00
30554;BME280;17335;50.720;7.452;2024-03-02T06:02:10;97900.91;;;4.22;100.00
30554;BME280;17335;50.720;7.452;2024-03-02T06:04:37;97907.19;;;4.21;100.00
30554;BME280;17335;50.720;7.452;2024-03-02T06:07:03;97910.41;;;4.15;100.00
30554;BME280;17335;50.720;7.452;2024-03-02T06:09:30;97921.88;;;4.15;100.00
30554;BME280;17335;50.720;7.452;2024-03-02T06:11:56;97920.47;;;4.01;100.00
30554;BME280;17335;50.720;7.452;2024-03-02T06:14:23;97920.47;;;4.01;100.00
30554;BME280;17335;50.720;7.452;2024-03-02T06:16:49;97920.31;;;4.12;100.00
30554;BME280;17335;50.720;7.452;2024-03-02T06:19:15;97927.88;;;3.98;100.00
30554;BME280;17335;50.720;7.452;2024-03-02T06:21:42;97928.00;;;3.96;100.00
30554;BME280;17335;50.720;7.452;2024-03-02T06:24:09;97928.28;;;3.93;100.00
30554;BME280;17335;50.720;7.452;2024-03-02T06:26:35;97930.22;;;3.91;100.00
30554;BME280;17335;50.720;7.452;2024-03-02T06:29:02;97942.53;;;3.92;100.00
30554;BME280;17335;50.720;7.452;2024-03-02T06:31:28;97953.72;;;3.96;100.00
30554;BME280;17335;50.720;7.452;2024-03-02T06:33:56;97947.84;;;3.92;100.00
30554;BME280;17335;50.720;7.452;2024-03-02T06:36:22;97959.63;;;4.19;100.00
30554;BME280;17335;50.720;7.452;2024-03-02T06:38:49;97959.88;;;4.16;100.00
30554;BME280;17335;50.720;7.452;2024-03-02T06:41:16;97965.47;;;4.12;100.00
30554;BME280;17335;50.720;7.452;2024-03-02T06:43:42;97968.53;;;4.18;100.00
30554;BME280;17335;50.720;7.452;2024-03-02T06:46:09;97973.31;;;4.24;100.00
30554;BME280;17335;50.720;7.452;2024-03-02T06:48:36;97956.69;;;4.22;100.00
30554;BME280;17335;50.720;7.452;2024-03-02T06:51:02;97959.63;;;4.28;100.00
30554;BME280;17335;50.720;7.452;2024-03-02T06:53:29;97967.16;;;4.33;100.00
30554;BME280;17335;50.720;7.452;2024-03-02T06:55:56;97950.78;;;4.57;100.00
30554;BME280;17335;50.720;7.452;2024-03-02T06:58:22;97955.13;;;4.68;100.00
30554;BME280;17335;50.720;7.452;2024-03-02T07:00:49;97951.22;;;4.72;100.00
30554;BME280;17335;50.720;7.452;2024-03-02T07:03:15;97948.97;;;4.77;100.00
30554;BME280;17335;50.720;7.452;2024-03-02T07:05:42;97948.41;;;4.83;100.00
30554;BME280;17335;50.720;7.452;2024-03-02T07:08:09;97951.16;;;4.92;100.00
30554;BME280;17335;50.720;7.452;2024-03-02T07:10:35;97958.72;;;4.96;100.00
30554;BME280;17335;50.720;7.452;2024-03-02T07:13:02;97957.75;;;4.97;100.00
30554;BME280;17335;50.720;7.452;2024-03-02T07:15:28;97959.13;;;5.01;100.00
30554;BME280;17335;50.720;7.452;2024-03-02T07:18:18;97963.03;;;5.07;100.00
30554;BME280;17335;50.720;7.452;2024-03-02T07:20:44;97959.94;;;5.12;100.00
30554;BME280;17335;50.720;7.452;2024-03-02T07:23:11;97963.44;;;5.12;100.00
30554;BME280;17335;50.720;7.452;2024-03-02T07:25:37;97959.53;;;5.16;100.00
30554;BME280;17335;50.720;7.452;2024-03-02T07:28:06;97965.53;;;5.18;100.00
30554;BME280;17335;50.720;7.452;2024-03-02T07:30:33;97965.38;;;5.30;100.00
30554;BME280;17335;50.720;7.452;2024-03-02T07:33:00;97960.66;;;5.41;100.00
30554;BME280;17335;50.720;7.452;2024-03-02T07:35:26;97967.38;;;5.55;100.00
30554;BME280;17335;50.720;7.452;2024-03-02T07:37:53;97965.53;;;5.56;100.00
30554;BME280;17335;50.720;7.452;2024-03-02T07:40:20;97971.25;;;5.61;100.00
30554;BME280;17335;50.720;7.452;2024-03-02T07:42:47;97966.75;;;5.61;100.00
30554;BME280;17335;50.720;7.452;2024-03-02T07:45:13;97960.75;;;5.59;100.00
30554;BME280;17335;50.720;7.452;2024-03-02T07:47:41;97970.97;;;5.64;100.00
30554;BME280;17335;50.720;7.452;2024-03-02T07:50:08;97972.47;;;5.67;100.00
30554;BME280;17335;50.720;7.452;2024-03-02T07:52:35;97977.22;;;5.73;100.00
30554;BME280;17335;50.720;7.452;2024-03-02T07:55:01;97976.63;;;5.79;100.00
30554;BME280;17335;50.720;7.452;2024-03-02T07:57:28;97969.81;;;5.94;100.00
30554;BME280;17335;50.720;7.452;2024-03-02T07:59:54;97970.09;;;6.01;100.00
30554;BME280;17335;50.720;7.452;2024-03-02T08:02:21;97976.81;;;5.95;100.00
30554;BME280;17335;50.720;7.452;2024-03-02T08:04:48;97978.38;;;5.98;100.00
30554;BME280;17335;50.720;7.452;2024-03-02T08:07:14;97985.47;;;6.07;100.00
30554;BME280;17335;50.720;7.452;2024-03-02T08:09:41;97983.28;;;6.20;100.00
30554;BME280;17335;50.720;7.452;2024-03-02T08:12:07;97981.16;;;6.24;100.00
30554;BME280;17335;50.720;7.452;2024-03-02T08:14:34;97976.81;;;6.41;100.00
30554;BME280;17335;50.720;7.452;2024-03-02T08:17:01;97991.38;;;6.47;100.00
30554;BME280;17335;50.720;7.452;2024-03-02T08:19:28;97993.19;;;6.46;100.00
30554;BME280;17335;50.720;7.452;2024-03-02T08:21:54;97998.22;;;6.49;100.00
30554;BME280;17335;50.720;7.452;2024-03-02T08:24:21;97994.84;;;6.65;100.00
30554;BME280;17335;50.720;7.452;2024-03-02T08:26:49;98001.28;;;6.72;100.00
30554;BME280;17335;50.720;7.452;2024-03-02T08:29:16;97989.44;;;6.75;100.00
30554;BME280;17335;50.720;7.452;2024-03-02T08:31:42;97989.97;;;6.79;100.00
30554;BME280;17335;50.720;7.452;2024-03-02T08:34:09;97988.69;;;6.83;100.00
30554;BME280;17335;50.720;7.452;2024-03-02T08:36:36;97978.13;;;6.99;100.00
30554;BME280;17335;50.720;7.452;2024-03-02T08:39:03;97974.50;;;7.00;100.00
30554;BME280;17335;50.720;7.452;2024-03-02T08:41:29;97962.94;;;7.18;100.00
30554;BME280;17335;50.720;7.452;2024-03-02T08:43:56;97975.47;;;7.25;100.00
30554;BME280;17335;50.720;7.452;2024-03-02T08:46:22;97967.88;;;7.39;100.00
30554;BME280;17335;50.720;7.452;2024-03-02T08:48:49;97966.44;;;7.53;100.00
30554;BME280;17335;50.720;7.452;2024-03-02T08:51:15;97974.50;;;7.61;100.00
30554;BME280;17335;50.720;7.452;2024-03-02T08:53:42;97966.53;;;7.69;100.00
30554;BME280;17335;50.720;7.452;2024-03-02T08:56:10;97955.19;;;7.75;100.00
30554;BME280;17335;50.720;7.452;2024-03-02T08:58:36;97961.25;;;7.85;100.00
30554;BME280;17335;50.720;7.452;2024-03-02T09:01:03;97963.78;;;7.95;100.00
30554;BME280;17335;50.720;7.452;2024-03-02T09:03:29;97952.16;;;8.13;100.00
30554;BME280;17335;50.720;7.452;2024-03-02T09:05:56;97959.69;;;8.34;100.00
30554;BME280;17335;50.720;7.452;2024-03-02T09:08:22;97958.28;;;8.48;100.00
30554;BME280;17335;50.720;7.452;2024-03-02T09:10:48;97966.44;;;8.54;100.00
30554;BME280;17335;50.720;7.452;2024-03-02T09:13:15;97974.97;;;8.66;100.00
30554;BME280;17335;50.720;7.452;2024-03-02T09:15:42;97968.47;;;8.69;100.00
30554;BME280;17335;50.720;7.452;2024-03-02T09:18:08;97967.97;;;8.81;100.00
30554;BME280;17335;50.720;7.452;2024-03-02T09:20:35;97975.81;;;8.83;100.00
30554;BME280;17335;50.720;7.452;2024-03-02T09:23:01;97965.13;;;8.91;100.00
30554;BME280;17335;50.720;7.452;2024-03-02T09:25:28;97967.31;;;8.88;100.00
30554;BME280;17335;50.720;7.452;2024-03-02T09:27:54;97962.63;;;8.98;100.00
30554;BME280;17335;50.720;7.452;2024-03-02T09:30:21;97956.56;;;9.04;100.00
30554;BME280;17335;50.720;7.452;2024-03-02T09:32:47;97952.91;;;9.05;100.00
30554;BME280;17335;50.720;7.452;2024-03-02T09:35:16;97954.91;;;9.11;100.00
30554;BME280;17335;50.720;7.452;2024-03-02T09:37:42;97945.69;;;9.14;100.00
30554;BME280;17335;50.720;7.452;2024-03-02T09:40:09;97944.31;;;9.26;100.00
30554;BME280;17335;50.720;7.452;2024-03-02T09:42:37;97952.03;;;9.21;100.00
30554;BME280;17335;50.720;7.452;2024-03-02T09:45:04;97955.19;;;9.33;100.00
30554;BME280;17335;50.720;7.452;2024-03-02T09:47:31;97935.94;;;9.37;100.00
30554;BME280;17335;50.720;7.452;2024-03-02T09:49:57;97947.81;;;9.43;100.00
30554;BME280;17335;50.720;7.452;2024-03-02T09:52:24;97938.94;;;9.43;100.00
30554;BME280;17335;50.720;7.452;2024-03-02T09:54:51;97937.91;;;9.52;100.00
30554;BME280;17335;50.720;7.452;2024-03-02T09:57:17;97942.56;;;9.58;100.00
30554;BME280;17335;50.720;7.452;2024-03-02T09:59:44;97925.06;;;9.79;100.00
30554;BME280;17335;50.720;7.452;2024-03-02T10:02:11;97941.47;;;9.84;100.00
30554;BME280;17335;50.720;7.452;2024-03-02T10:04:38;97938.94;;;9.90;100.00
30554;BME280;17335;50.720;7.452;2024-03-02T10:07:15;97932.63;;;10.06;100.00
30554;BME280;17335;50.720;7.452;2024-03-02T10:09:44;97927.63;;;10.03;100.00
30554;BME280;17335;50.720;7.452;2024-03-02T10:12:12;97928.22;;;10.13;100.00
30554;BME280;17335;50.720;7.452;2024-03-02T10:14:40;97937.56;;;10.18;100.00
30554;BME280;17335;50.720;7.452;2024-03-02T10:17:08;97924.47;;;10.23;100.00
30554;BME280;17335;50.720;7.452;2024-03-02T10:19:36;97919.03;;;10.39;100.00
30554;BME280;17335;50.720;7.452;2024-03-02T10:22:04;97931.88;;;10.52;100.00
30554;BME280;17335;50.720;7.452;2024-03-02T10:29:39;97931.56;;;10.70;100.00
30554;BME280;17335;50.720;7.452;2024-03-02T10:32:10;97939.19;;;10.81;100.00
30554;BME280;17335;50.720;7.452;2024-03-02T10:34:40;97943.34;;;10.84;100.00
30554;BME280;17335;50.720;7.452;2024-03-02T10:37:07;97942.72;;;10.97;100.00
30554;BME280;17335;50.720;7.452;2024-03-02T10:39:35;97934.50;;;10.98;100.00
30554;BME280;17335;50.720;7.452;2024-03-02T10:42:08;97932.75;;;11.05;100.00
30554;BME280;17335;50.720;7.452;2024-03-02T10:44:35;97932.94;;;11.04;100.00
30554;BME280;17335;50.720;7.452;2024-03-02T10:47:03;97935.63;;;11.19;100.00
30554;BME280;17335;50.720;7.452;2024-03-02T10:49:31;97925.00;;;11.25;100.00
30554;BME280;17335;50.720;7.452;2024-03-02T10:51:58;97924.84;;;11.42;100.00
30554;BME280;17335;50.720;7.452;2024-03-02T10:54:26;97925.47;;;11.44;100.00
30554;BME280;17335;50.720;7.452;2024-03-02T10:56:58;97915.00;;;11.49;100.00
30554;BME280;17335;50.720;7.452;2024-03-02T10:59:27;97915.38;;;11.46;100.00
30554;BME280;17335;50.720;7.452;2024-03-02T11:01:57;97915.19;;;11.62;100.00
30554;BME280;17335;50.720;7.452;2024-03-02T11:04:31;97910.19;;;11.59;100.00
30554;BME280;17335;50.720;7.452;2024-03-02T11:07:06;97917.97;;;11.69;100.00
30554;BME280;17335;50.720;7.452;2024-03-02T11:09:35;97903.84;;;11.67;100.00
30554;BME280;17335;50.720;7.452;2024-03-02T11:12:28;97918.50;;;11.50;100.00
30554;BME280;17335;50.720;7.452;2024-03-02T11:14:56;97915.72;;;11.43;100.00
30554;BME280;17335;50.720;7.452;2024-03-02T11:17:23;97916.28;;;11.23;100.00
30554;BME280;17335;50.720;7.452;2024-03-02T11:19:50;97902.13;;;11.15;100.00
30554;BME280;17335;50.720;7.452;2024-03-02T11:22:17;97904.81;;;11.30;100.00
30554;BME280;17335;50.720;7.452;2024-03-02T11:24:51;97905.66;;;11.45;100.00
30554;BME280;17335;50.720;7.452;2024-03-02T11:33:01;97906.22;;;11.40;100.00
30554;BME280;17335;50.720;7.452;2024-03-02T11:35:37;97895.28;;;11.42;100.00
30554;BME280;17335;50.720;7.452;2024-03-02T11:38:04;97902.47;;;11.41;100.00
30554;BME280;17335;50.720;7.452;2024-03-02T11:40:30;97894.06;;;11.44;100.00
30554;BME280;17335;50.720;7.452;2024-03-02T11:42:59;97894.78;;;11.53;100.00
30554;BME280;17335;50.720;7.452;2024-03-02T11:45:26;97896.09;;;11.57;100.00
30554;BME280;17335;50.720;7.452;2024-03-02T11:47:56;97895.47;;;11.55;100.00
30554;BME280;17335;50.720;7.452;2024-03-02T11:50:30;97895.56;;;11.47;100.00
30554;BME280;17335;50.720;7.452;2024-03-02T11:52:59;97897.09;;;11.56;100.00
30554;BME280;17335;50.720;7.452;2024-03-02T11:55:26;97892.00;;;11.61;100.00
30554;BME280;17335;50.720;7.452;2024-03-02T11:57:53;97877.31;;;11.79;100.00
30554;BME280;17335;50.720;7.452;2024-03-02T12:00:20;97877.88;;;11.89;100.00
30554;BME280;17335;50.720;7.452;2024-03-02T12:03:08;97859.56;;;12.14;100.00
30554;BME280;17335;50.720;7.452;2024-03-02T12:05:35;97863.53;;;12.40;100.00
30554;BME280;17335;50.720;7.452;2024-03-02T12:08:06;97852.00;;;12.25;100.00
30554;BME280;17335;50.720;7.452;2024-03-02T12:10:34;97844.00;;;12.31;100.00
30554;BME280;17335;50.720;7.452;2024-03-02T12:13:02;97852.63;;;12.27;100.00
30554;BME280;17335;50.720;7.452;2024-03-02T12:15:33;97857.31;;;12.18;100.00
30554;BME280;17335;50.720;7.452;2024-03-02T12:18:01;97854.00;;;12.16;100.00
30554;BME280;17335;50.720;7.452;2024-03-02T12:20:29;97858.22;;;12.25;100.00
30554;BME280;17335;50.720;7.452;2024-03-02T12:23:01;97858.66;;;12.50;100.00
30554;BME280;17335;50.720;7.452;2024-03-02T12:25:30;97846.16;;;12.64;100.00
30554;BME280;17335;50.720;7.452;2024-03-02T12:27:59;97837.38;;;12.84;100.00
30554;BME280;17335;50.720;7.452;2024-03-02T12:30:29;97831.84;;;12.92;100.00
30554;BME280;17335;50.720;7.452;2024-03-02T12:32:56;97838.03;;;13.21;100.00
30554;BME280;17335;50.720;7.452;2024-03-02T12:35:24;97841.88;;;13.33;100.00
30554;BME280;17335;50.720;7.452;2024-03-02T12:37:52;97838.16;;;13.06;100.00
30554;BME280;17335;50.720;7.452;2024-03-02T12:40:20;97836.59;;;12.90;100.00
30554;BME280;17335;50.720;7.452;2024-03-02T12:42:49;97837.75;;;12.81;100.00
30554;BME280;17335;50.720;7.452;2024-03-02T12:45:16;97839.94;;;12.64;100.00
30554;BME280;17335;50.720;7.452;2024-03-02T12:47:50;97833.94;;;12.68;100.00
30554;BME280;17335;50.720;7.452;2024-03-02T12:50:18;97833.94;;;12.68;100.00
30554;BME280;17335;50.720;7.452;2024-03-02T12:52:54;97836.34;;;12.56;100.00
30554;BME280;17335;50.720;7.452;2024-03-02T12:55:22;97826.28;;;12.65;100.00
30554;BME280;17335;50.720;7.452;2024-03-02T12:57:52;97827.16;;;12.72;100.00
30554;BME280;17335;50.720;7.452;2024-03-02T13:00:20;97821.59;;;12.81;100.00
30554;BME280;17335;50.720;7.452;2024-03-02T13:02:47;97824.63;;;12.99;100.00
30554;BME280;17335;50.720;7.452;2024-03-02T13:05:18;97819.63;;;12.96;100.00
30554;BME280;17335;50.720;7.452;2024-03-02T13:07:47;97821.97;;;13.06;100.00
30554;BME280;17335;50.720;7.452;2024-03-02T13:10:14;97813.75;;;13.14;100.00
30554;BME280;17335;50.720;7.452;2024-03-02T13:12:40;97807.78;;;13.19;100.00
30554;BME280;17335;50.720;7.452;2024-03-02T13:15:08;97804.03;;;13.20;100.00